Time;durP1;ratioP1;P1;durP2;ratioP2;P2;SDS_P1;SDS_P2;PMS_P1;PMS_P2;Temp;Humidity;BMP_temperature;BMP_pressure;BME280_temperature;BME280_humidity;BME280_pressure;Samples;Min_cycle;Max_cycle;Signal;HPM_P1;HPM_P2
2022/12/09 00:01:08;;;;;;;51.95;20.85;;;;;;;1.29;83.24;100338.51;1571747;90;21173;-69
2022/12/09 00:03:35;;;;;;;51.00;19.30;;;;;;;1.29;83.24;100342.87;1564017;90;21630;-69
2022/12/09 00:06:16;;;;;;;45.48;20.05;;;;;;;1.29;83.27;100345.47;1567061;90;21495;-70
2022/12/09 00:08:43;;;;;;;45.17;19.48;;;;;;;1.29;83.27;100350.67;1576815;90;21863;-69
2022/12/09 00:11:09;;;;;;;38.48;18.75;;;;;;;1.30;83.25;100356.27;1565598;90;21512;-70
2022/12/09 00:13:37;;;;;;;38.08;18.87;;;;;;;1.27;83.23;100354.64;1566665;89;21433;-70
2022/12/09 00:16:08;;;;;;;43.98;19.27;;;;;;;1.29;83.25;100359.33;1571760;89;21130;-70
2022/12/09 00:18:35;;;;;;;46.42;19.57;;;;;;;1.30;83.27;100353.66;1573898;89;21111;-70
2022/12/09 00:21:33;;;;;;;50.85;19.67;;;;;;;1.29;83.26;100342.41;1544479;89;21803;-70
2022/12/09 00:24:04;;;;;;;62.05;20.10;;;;;;;1.30;83.23;100344.10;1582342;88;21007;-70
2022/12/09 00:26:32;;;;;;;47.70;21.50;;;;;;;1.31;83.21;100344.94;1575026;88;21621;-69
2022/12/09 00:28:59;;;;;;;49.55;20.82;;;;;;;1.31;83.17;100338.44;1563078;89;21093;-71
2022/12/09 00:31:29;;;;;;;48.13;21.35;;;;;;;1.31;83.17;100339.73;1558930;90;21063;-69
2022/12/09 00:33:58;;;;;;;62.83;21.50;;;;;;;1.30;83.18;100340.66;1554292;89;22888;-70
2022/12/09 00:36:25;;;;;;;49.80;20.85;;;;;;;1.30;83.15;100340.66;1544632;90;21131;-69
2022/12/09 00:38:55;;;;;;;54.00;22.52;;;;;;;1.28;83.15;100341.17;1564029;88;21728;-70
2022/12/09 00:41:21;;;;;;;46.18;21.52;;;;;;;1.28;83.16;100346.38;1593430;89;21152;-69
2022/12/09 00:43:50;;;;;;;41.77;21.33;;;;;;;1.29;83.17;100346.77;1558671;88;21134;-69
2022/12/09 00:46:16;;;;;;;55.70;22.02;;;;;;;1.31;83.17;100348.84;1577074;89;21838;-69
2022/12/09 00:48:44;;;;;;;55.12;20.37;;;;;;;1.32;83.17;100340.12;1574756;89;21551;-70
2022/12/09 00:51:14;;;;;;;49.38;20.45;;;;;;;1.32;83.19;100340.97;1548956;90;21539;-71
2022/12/09 00:53:41;;;;;;;46.48;20.08;;;;;;;1.34;83.17;100332.64;1563598;89;21598;-70
2022/12/09 00:56:08;;;;;;;38.08;19.90;;;;;;;1.33;83.16;100333.55;1574250;90;21123;-70
2022/12/09 00:58:35;;;;;;;60.25;19.92;;;;;;;1.34;83.15;100340.44;1593099;89;22546;-69
2022/12/09 01:01:02;;;;;;;48.80;19.73;;;;;;;1.34;83.12;100337.00;1603746;87;21474;-69
2022/12/09 01:03:28;;;;;;;50.15;20.20;;;;;;;1.33;83.09;100334.01;1588109;88;21244;-69
2022/12/09 01:05:55;;;;;;;57.83;20.85;;;;;;;1.34;83.10;100339.60;1540391;91;21120;-70
2022/12/09 01:08:22;;;;;;;53.92;21.33;;;;;;;1.35;83.09;100341.29;1577139;89;21569;-69
2022/12/09 01:10:49;;;;;;;48.87;20.90;;;;;;;1.35;83.06;100342.16;1562217;89;21873;-69
2022/12/09 01:13:15;;;;;;;49.20;19.02;;;;;;;1.36;83.06;100332.60;1587209;87;21019;-69
2022/12/09 01:15:42;;;;;;;44.67;17.70;;;;;;;1.36;83.01;100327.40;1565821;88;21218;-69
2022/12/09 01:18:10;;;;;;;57.90;17.95;;;;;;;1.34;82.97;100327.44;1575717;89;21160;-70
2022/12/09 01:20:36;;;;;;;56.08;18.05;;;;;;;1.30;82.92;100328.95;1575779;88;21622;-69
2022/12/09 01:23:03;;;;;;;39.40;18.35;;;;;;;1.28;82.89;100329.47;1573557;88;22749;-69
2022/12/09 01:25:30;;;;;;;63.50;19.23;;;;;;;1.27;82.89;100327.33;1565157;89;21587;-69
2022/12/09 01:27:56;;;;;;;42.83;17.55;;;;;;;1.25;82.84;100328.28;1567964;90;21540;-69
2022/12/09 01:30:23;;;;;;;40.95;18.40;;;;;;;1.21;82.81;100324.97;1559739;90;21482;-71
2022/12/09 01:32:49;;;;;;;47.98;21.75;;;;;;;1.19;82.83;100325.49;1565511;89;21092;-69
2022/12/09 01:35:16;;;;;;;41.20;22.25;;;;;;;1.15;82.83;100327.35;1569200;89;21462;-71
2022/12/09 01:37:42;;;;;;;39.38;19.90;;;;;;;1.12;82.84;100317.09;1586336;87;21320;-69
2022/12/09 01:40:15;;;;;;;30.30;17.35;;;;;;;1.12;82.94;100309.28;1590210;89;21032;-69
2022/12/09 01:42:42;;;;;;;21.07;11.95;;;;;;;1.14;82.94;100311.81;1572795;88;21153;-70
2022/12/09 01:45:29;;;;;;;14.78;10.00;;;;;;;1.14;82.95;100311.81;1589922;88;21104;-70
2022/12/09 01:48:13;;;;;;;15.25;9.68;;;;;;;1.13;82.93;100310.12;1580033;87;22007;-69
2022/12/09 01:50:53;;;;;;;14.03;8.68;;;;;;;1.11;82.91;100310.20;1560915;90;21122;-69
2022/12/09 01:53:25;;;;;;;17.30;8.83;;;;;;;1.08;82.93;100301.69;1573798;87;21147;-69
2022/12/09 01:55:54;;;;;;;17.00;9.28;;;;;;;1.04;82.89;100305.30;1578877;89;21522;-69
2022/12/09 01:58:20;;;;;;;16.30;9.30;;;;;;;1.02;82.93;100304.07;1536987;91;21105;-69
2022/12/09 02:00:47;;;;;;;15.40;7.62;;;;;;;1.03;82.99;100298.41;1561337;90;21810;-70
2022/12/09 02:03:13;;;;;;;20.00;8.20;;;;;;;1.04;83.07;100302.70;1581277;90;21244;-69
2022/12/09 02:05:40;;;;;;;17.23;9.63;;;;;;;1.05;83.04;100296.13;1569526;90;21143;-69
2022/12/09 02:08:11;;;;;;;30.15;9.25;;;;;;;1.04;82.99;100295.75;1583940;89;21656;-69
2022/12/09 02:10:58;;;;;;;15.70;9.85;;;;;;;1.03;83.00;100296.66;1594483;87;21087;-69
2022/12/09 02:14:02;;;;;;;26.70;9.68;;;;;;;1.01;82.99;100292.44;1553652;89;21821;-69
2022/12/09 02:16:33;;;;;;;15.10;8.85;;;;;;;1.01;83.04;100291.98;1557637;89;21088;-69
2022/12/09 02:19:22;;;;;;;14.03;8.88;;;;;;;1.01;83.08;100289.84;1568497;89;21527;-70
2022/12/09 02:21:54;;;;;;;16.57;8.60;;;;;;;1.02;83.12;100289.77;1543983;90;21389;-70
2022/12/09 02:24:44;;;;;;;25.57;8.85;;;;;;;1.02;83.10;100279.82;1531439;90;21099;-69
2022/12/09 02:27:19;;;;;;;27.52;9.78;;;;;;;1.03;83.11;100275.85;1585194;89;21757;-69
2022/12/09 02:30:14;;;;;;;49.40;12.40;;;;;;;1.03;83.10;100277.61;1606347;88;21141;-69
2022/12/09 02:33:09;;;;;;;53.98;13.62;;;;;;;1.02;83.13;100278.06;1569286;89;21103;-69
2022/12/09 02:35:45;;;;;;;55.17;17.73;;;;;;;1.00;83.05;100271.24;1575971;89;21032;-69
2022/12/09 02:38:18;;;;;;;88.62;27.15;;;;;;;0.98;83.01;100276.97;1576466;89;21154;-69
2022/12/09 02:40:58;;;;;;;116.17;30.12;;;;;;;0.91;82.96;100269.87;1566810;90;21966;-69
2022/12/09 02:43:29;;;;;;;134.57;31.70;;;;;;;0.88;82.92;100274.36;1544260;89;21098;-69
2022/12/09 02:45:55;;;;;;;121.95;27.27;;;;;;;0.84;82.95;100268.42;1563816;90;21174;-69
2022/12/09 02:48:34;;;;;;;130.60;27.65;;;;;;;0.82;82.92;100271.55;1571107;90;21157;-69
2022/12/09 02:51:03;;;;;;;104.47;23.25;;;;;;;0.79;82.92;100275.13;1551961;90;21147;-70
2022/12/09 02:53:30;;;;;;;102.75;24.07;;;;;;;0.78;82.96;100273.89;1553385;90;21920;-69
2022/12/09 02:55:56;;;;;;;137.88;24.02;;;;;;;0.75;82.97;100277.44;1568988;88;21045;-69
2022/12/09 02:58:24;;;;;;;139.82;21.48;;;;;;;0.75;83.01;100272.69;1529146;90;21666;-69
2022/12/09 03:00:50;;;;;;;130.03;22.42;;;;;;;0.75;83.08;100267.49;1579769;88;21093;-69
2022/12/09 03:03:17;;;;;;;169.97;29.37;;;;;;;0.74;83.09;100265.81;1524235;90;21146;-69
2022/12/09 03:06:06;;;;;;;138.50;28.87;;;;;;;0.75;83.10;100276.59;1528488;90;21930;-69
2022/12/09 03:08:46;;;;;;;148.38;29.63;;;;;;;0.72;83.10;100271.08;1541686;90;21561;-73
2022/12/09 03:11:18;;;;;;;149.97;28.70;;;;;;;0.70;83.17;100262.50;1544108;91;21071;-70
2022/12/09 03:14:11;;;;;;;70.15;27.98;;;;;;;0.72;83.22;100257.23;1541839;90;21160;-70
2022/12/09 03:16:57;;;;;;;150.20;24.95;;;;;;;0.74;83.31;100247.61;1539398;90;21159;-69
2022/12/09 03:19:39;;;;;;;112.40;20.65;;;;;;;0.76;83.33;100242.73;1586244;88;22510;-69
2022/12/09 03:22:12;;;;;;;80.47;18.57;;;;;;;0.78;83.33;100247.89;1584103;89;21508;-69
2022/12/09 03:25:02;;;;;;;99.52;19.00;;;;;;;0.77;83.32;100261.77;1578035;89;21063;-69
2022/12/09 03:27:40;;;;;;;93.78;18.82;;;;;;;0.73;83.29;100249.36;1564106;88;21543;-70
2022/12/09 03:30:08;;;;;;;96.37;18.23;;;;;;;0.73;83.38;100251.13;1580392;88;21140;-69
2022/12/09 03:32:35;;;;;;;82.37;17.55;;;;;;;0.73;83.37;100257.16;1559357;91;22456;-70
2022/12/09 03:35:19;;;;;;;70.67;17.87;;;;;;;0.73;83.38;100261.52;1541307;92;21093;-69
2022/12/09 03:37:46;;;;;;;89.97;18.87;;;;;;;0.73;83.41;100261.52;1545264;90;21617;-71
2022/12/09 03:40:15;;;;;;;83.05;17.42;;;;;;;0.73;83.44;100258.92;1564424;88;21522;-70
2022/12/09 03:43:04;;;;;;;61.55;17.20;;;;;;;0.74;83.47;100257.55;1592632;87;21130;-69
2022/12/09 03:45:31;;;;;;;99.87;19.30;;;;;;;0.76;83.52;100262.69;1570463;88;21913;-70
2022/12/09 03:47:57;;;;;;;74.97;20.45;;;;;;;0.78;83.46;100256.99;1561316;89;21148;-71
2022/12/09 03:50:26;;;;;;;58.78;19.37;;;;;;;0.77;83.48;100253.97;1572894;89;21546;-71
2022/12/09 03:53:12;;;;;;;78.00;16.02;;;;;;;0.78;83.54;100261.73;1560161;89;21041;-70
2022/12/09 03:56:01;;;;;;;95.10;13.40;;;;;;;0.82;83.57;100267.64;1571273;88;21131;-70
2022/12/09 03:58:30;;;;;;;47.75;12.60;;;;;;;0.85;83.56;100258.41;1554236;87;21982;-72
2022/12/09 04:00:57;;;;;;;43.52;12.78;;;;;;;0.86;83.52;100263.54;1548719;90;21522;-70
2022/12/09 04:03:24;;;;;;;86.02;13.28;;;;;;;0.88;83.57;100266.10;1563581;90;21014;-71
2022/12/09 04:05:50;;;;;;;60.38;12.07;;;;;;;0.91;83.56;100275.06;1571475;89;21553;-71
2022/12/09 04:08:19;;;;;;;84.00;11.05;;;;;;;0.93;83.52;100272.40;1558244;89;20988;-71
2022/12/09 04:10:45;;;;;;;50.20;10.90;;;;;;;0.94;83.53;100268.89;1591021;88;21861;-71
2022/12/09 04:13:11;;;;;;;79.00;9.85;;;;;;;0.94;83.50;100271.03;1573967;90;21300;-70
2022/12/09 04:15:38;;;;;;;51.85;10.32;;;;;;;0.94;83.49;100271.03;1586338;88;21080;-70
2022/12/09 04:18:05;;;;;;;35.03;10.08;;;;;;;0.92;83.46;100261.61;1583976;88;21196;-70
2022/12/09 04:20:32;;;;;;;26.57;9.50;;;;;;;0.94;83.52;100267.13;1591094;88;21104;-71
2022/12/09 04:23:00;;;;;;;30.68;9.65;;;;;;;0.96;83.57;100265.30;1571199;89;22618;-71
2022/12/09 04:25:26;;;;;;;33.53;9.78;;;;;;;0.99;83.58;100261.30;1552813;89;21088;-71
2022/12/09 04:27:54;;;;;;;39.13;9.60;;;;;;;1.01;83.58;100262.53;1603558;88;21042;-70
2022/12/09 04:30:21;;;;;;;66.25;9.98;;;;;;;1.03;83.60;100260.70;1577208;89;21030;-70
2022/12/09 04:32:47;;;;;;;36.17;10.03;;;;;;;1.04;83.58;100252.83;1568174;89;21631;-70
2022/12/09 04:35:14;;;;;;;44.18;10.63;;;;;;;1.04;83.52;100252.83;1573476;89;21874;-70
2022/12/09 04:37:40;;;;;;;53.52;11.60;;;;;;;1.05;83.49;100241.52;1571629;89;21087;-71
2022/12/09 04:40:08;;;;;;;92.30;12.45;;;;;;;1.06;83.52;100243.23;1568754;89;21001;-70
2022/12/09 04:42:35;;;;;;;52.03;13.98;;;;;;;1.06;83.46;100235.43;1567266;89;21230;-72
2022/12/09 04:45:02;;;;;;;43.10;14.10;;;;;;;1.06;83.46;100240.63;1549905;90;21225;-71
2022/12/09 04:47:28;;;;;;;50.30;15.80;;;;;;;1.07;83.49;100241.48;1590444;88;22512;-71
2022/12/09 04:49:55;;;;;;;85.72;17.02;;;;;;;1.08;83.51;100249.66;1577392;89;21165;-74
2022/12/09 04:52:21;;;;;;;47.35;16.80;;;;;;;1.09;83.50;100248.75;1583694;87;21141;-71
2022/12/09 04:54:49;;;;;;;51.20;18.10;;;;;;;1.09;83.49;100250.05;1578860;89;21182;-71
2022/12/09 04:57:17;;;;;;;49.18;17.17;;;;;;;1.09;83.51;100246.99;1588867;88;21111;-73
2022/12/09 04:59:43;;;;;;;48.78;18.17;;;;;;;1.10;83.52;100236.98;1584791;87;21892;-72
2022/12/09 05:02:11;;;;;;;51.53;18.15;;;;;;;1.11;83.49;100239.12;1572350;89;21056;-73
2022/12/09 05:04:38;;;;;;;46.25;17.70;;;;;;;1.11;83.50;100229.56;1594874;88;21145;-72
2022/12/09 05:07:04;;;;;;;43.95;17.37;;;;;;;1.13;83.52;100229.48;1585352;89;21437;-71
2022/12/09 05:09:31;;;;;;;56.15;16.82;;;;;;;1.13;83.51;100226.43;1582206;87;20958;-72
2022/12/09 05:11:58;;;;;;;51.00;17.37;;;;;;;1.14;83.46;100225.52;1577990;88;21873;-72
2022/12/09 05:14:25;;;;;;;44.20;15.70;;;;;;;1.15;83.48;100226.36;1540644;90;21089;-71
2022/12/09 05:16:51;;;;;;;39.30;14.55;;;;;;;1.14;83.45;100235.92;1543351;90;21132;-72
2022/12/09 05:19:19;;;;;;;38.95;13.38;;;;;;;1.12;83.46;100222.14;1567883;89;21627;-71
2022/12/09 05:21:47;;;;;;;25.30;12.95;;;;;;;1.11;83.53;100225.66;1559122;89;21245;-73
2022/12/09 05:24:13;;;;;;;34.55;14.10;;;;;;;1.13;83.55;100222.98;1573204;89;21949;-72
2022/12/09 05:26:40;;;;;;;21.40;12.20;;;;;;;1.14;83.53;100225.97;1574895;89;21187;-72
2022/12/09 05:29:07;;;;;;;29.12;12.95;;;;;;;1.14;83.52;100222.91;1594914;87;21103;-73
2022/12/09 05:31:34;;;;;;;22.05;13.58;;;;;;;1.15;83.50;100225.91;1584158;87;21056;-73
2022/12/09 05:34:00;;;;;;;20.77;13.10;;;;;;;1.16;83.47;100228.08;1561119;89;21076;-72
2022/12/09 05:36:28;;;;;;;28.17;13.48;;;;;;;1.16;83.46;100226.78;1583259;88;21839;-72
2022/12/09 05:38:55;;;;;;;37.38;13.10;;;;;;;1.18;83.47;100228.01;1579427;88;21546;-76
2022/12/09 05:41:22;;;;;;;22.55;12.05;;;;;;;1.18;83.47;100226.25;1577824;88;21105;-73
2022/12/09 05:43:49;;;;;;;51.13;12.55;;;;;;;1.18;83.50;100231.91;1575882;89;21475;-74
2022/12/09 05:46:15;;;;;;;28.77;12.30;;;;;;;1.20;83.50;100226.17;1582331;87;21412;-72
2022/12/09 05:48:42;;;;;;;42.15;13.32;;;;;;;1.19;83.50;100219.29;1570695;89;21536;-73
2022/12/09 05:51:21;;;;;;;39.73;12.13;;;;;;;1.19;83.47;100211.48;1590004;89;21292;-79
2022/12/09 05:53:48;;;;;;;27.82;12.10;;;;;;;1.18;83.46;100215.84;1572892;88;21013;-75
2022/12/09 05:56:18;;;;;;;34.98;11.70;;;;;;;1.17;83.46;100221.12;1550300;90;21076;-76
2022/12/09 05:58:44;;;;;;;16.07;10.80;;;;;;;1.15;83.50;100220.70;1560778;89;21017;-72
2022/12/09 06:01:12;;;;;;;20.20;10.45;;;;;;;1.15;83.47;100213.35;1537964;90;21893;-72
2022/12/09 06:03:39;;;;;;;14.70;9.45;;;;;;;1.15;83.46;100214.20;1568199;88;21023;-72
2022/12/09 06:06:10;;;;;;;46.40;8.65;;;;;;;1.15;83.45;100210.30;1573248;88;21008;-73
2022/12/09 06:08:38;;;;;;;34.58;7.95;;;;;;;1.17;83.44;100212.02;1565432;88;21153;-72
2022/12/09 06:11:11;;;;;;;33.10;7.92;;;;;;;1.17;83.44;100210.26;1588453;88;21532;-72
2022/12/09 06:13:38;;;;;;;41.50;7.83;;;;;;;1.18;83.45;100213.24;1590496;88;21923;-72
2022/12/09 06:16:06;;;;;;;44.05;7.12;;;;;;;1.17;83.43;100204.21;1570657;89;21116;-72
2022/12/09 06:18:36;;;;;;;23.40;7.05;;;;;;;1.17;83.46;100204.21;1576654;87;21021;-73
2022/12/09 06:21:06;;;;;;;24.92;6.60;;;;;;;1.14;83.45;100212.52;1581450;89;21089;-71
2022/12/09 06:23:35;;;;;;;19.92;7.20;;;;;;;1.15;83.45;100224.60;1547354;90;21171;-71
2022/12/09 06:26:02;;;;;;;14.50;7.50;;;;;;;1.17;83.47;100226.32;1585540;89;21944;-71
2022/12/09 06:28:29;;;;;;;13.62;8.03;;;;;;;1.16;83.47;100226.78;1563819;88;21345;-74
2022/12/09 06:30:58;;;;;;;12.23;7.10;;;;;;;1.19;83.48;100234.44;1545751;90;21582;-71
2022/12/09 06:33:26;;;;;;;13.03;7.33;;;;;;;1.20;83.46;100231.38;1557513;88;21101;-71
2022/12/09 06:35:54;;;;;;;11.90;6.47;;;;;;;1.20;83.49;100228.32;1547101;90;21518;-71
2022/12/09 06:38:23;;;;;;;14.10;6.78;;;;;;;1.21;83.48;100231.31;1551000;91;22029;-71
2022/12/09 06:40:49;;;;;;;8.40;6.58;;;;;;;1.22;83.48;100223.89;1561554;90;21783;-71
2022/12/09 06:43:17;;;;;;;21.00;6.10;;;;;;;1.25;83.47;100232.02;1569106;89;21110;-71
2022/12/09 06:45:43;;;;;;;8.13;6.05;;;;;;;1.25;83.45;100228.95;1574691;87;21204;-72
2022/12/09 06:48:10;;;;;;;7.83;5.78;;;;;;;1.27;83.45;100232.36;1552221;90;21100;-71
2022/12/09 06:50:37;;;;;;;8.05;4.97;;;;;;;1.27;83.45;100233.66;1573313;89;22445;-72
2022/12/09 06:53:04;;;;;;;6.90;5.30;;;;;;;1.28;83.48;100231.90;1572497;89;21152;-71
2022/12/09 06:55:31;;;;;;;8.90;6.20;;;;;;;1.28;83.48;100222.80;1575800;88;21068;-71
2022/12/09 06:57:59;;;;;;;10.05;6.83;;;;;;;1.27;83.49;100219.34;1567040;89;21047;-71
2022/12/09 07:00:25;;;;;;;13.25;8.80;;;;;;;1.29;83.54;100221.88;1560524;89;21057;-72
2022/12/09 07:02:52;;;;;;;15.88;9.50;;;;;;;1.28;83.48;100208.03;1563656;89;22471;-74
2022/12/09 07:05:19;;;;;;;16.90;9.40;;;;;;;1.29;83.47;100201.06;1597108;87;20925;-72
2022/12/09 07:08:00;;;;;;;18.77;10.18;;;;;;;1.28;83.48;100195.47;1591841;88;21001;-72
2022/12/09 07:10:27;;;;;;;19.65;10.58;;;;;;;1.27;83.45;100196.39;1587856;88;21066;-71
2022/12/09 07:12:54;;;;;;;13.08;8.60;;;;;;;1.24;83.49;100196.50;1583924;88;21531;-73
2022/12/09 07:15:23;;;;;;;12.88;7.15;;;;;;;1.25;83.53;100195.59;1587339;88;21869;-73
2022/12/09 07:17:50;;;;;;;8.75;6.72;;;;;;;1.26;83.50;100198.61;1578909;88;21087;-71
2022/12/09 07:20:17;;;;;;;9.40;6.03;;;;;;;1.28;83.51;100195.47;1592862;88;21121;-70
2022/12/09 07:22:44;;;;;;;17.40;6.08;;;;;;;1.29;83.46;100186.75;1590219;88;21063;-70
2022/12/09 07:25:11;;;;;;;37.90;6.62;;;;;;;1.30;83.48;100181.48;1590261;88;21112;-71
2022/12/09 07:27:38;;;;;;;27.52;5.80;;;;;;;1.29;83.46;100178.48;1578295;88;21811;-70
2022/12/09 07:30:07;;;;;;;13.15;5.83;;;;;;;1.29;83.49;100185.45;1597767;88;21429;-71
2022/12/09 08:27:33;;;;;;;32.75;26.97;;;;;;;1.43;83.50;100160.95;1577786;88;21051;-73
2022/12/09 08:29:59;;;;;;;26.93;22.67;;;;;;;1.44;83.47;100163.93;1583382;88;21914;-71
2022/12/09 08:36:10;;;;;;;51.90;38.90;;;;;;;1.46;83.46;100159.98;1549642;88;21543;-71
2022/12/09 08:38:36;;;;;;;54.48;41.28;;;;;;;1.46;83.50;100153.02;1589527;88;21131;-67
2022/12/09 08:41:33;;;;;;;39.80;31.68;;;;;;;1.47;83.51;100144.76;1580970;88;21179;-69
2022/12/09 08:43:51;;;;;;;33.48;27.30;;;;;;;1.50;83.51;100143.30;1590138;89;21828;-68
2022/12/09 08:46:17;;;;;;;34.18;29.07;;;;;;;1.51;83.49;100136.72;1596194;88;21152;-70
2022/12/09 08:48:43;;;;;;;36.13;29.65;;;;;;;1.51;83.43;100131.52;1580222;89;21186;-70
2022/12/09 08:51:11;;;;;;;28.85;25.05;;;;;;;1.52;83.45;100127.16;1564490;90;21036;-69
2022/12/09 08:53:38;;;;;;;29.92;24.50;;;;;;;1.53;83.45;100121.03;1583287;89;21427;-70
2022/12/09 08:56:12;;;;;;;22.65;19.75;;;;;;;1.53;83.43;100120.57;1572071;88;22464;-69
2022/12/09 08:58:39;;;;;;;25.92;21.50;;;;;;;1.53;83.43;100121.87;1563097;88;21218;-68
2022/12/09 09:01:05;;;;;;;20.27;15.98;;;;;;;1.55;83.47;100115.32;1555414;90;21600;-67
2022/12/09 09:03:32;;;;;;;12.23;10.48;;;;;;;1.57;83.44;100106.52;1553120;90;21083;-68
2022/12/09 09:06:04;;;;;;;11.83;9.15;;;;;;;1.59;83.41;100102.53;1561873;90;21118;-69
2022/12/09 09:08:31;;;;;;;11.75;8.93;;;;;;;1.60;83.45;100090.75;1595249;88;22256;-71
2022/12/09 09:10:58;;;;;;;11.00;7.75;;;;;;;1.63;83.42;100085.38;1548456;89;21063;-68
2022/12/09 09:13:25;;;;;;;8.30;6.70;;;;;;;1.66;83.43;100085.26;1581168;88;21101;-71
2022/12/09 09:15:51;;;;;;;8.88;6.58;;;;;;;1.67;83.43;100076.53;1577177;89;21113;-69
2022/12/09 09:18:18;;;;;;;7.45;6.47;;;;;;;1.69;83.39;100075.99;1573741;89;21090;-69
2022/12/09 09:20:46;;;;;;;8.43;6.50;;;;;;;1.68;83.37;100074.31;1581440;88;21832;-70
2022/12/09 09:23:16;;;;;;;9.03;6.12;;;;;;;1.69;83.32;100073.39;1595794;88;21220;-74
2022/12/09 09:25:43;;;;;;;7.80;6.45;;;;;;;1.69;83.29;100060.38;1603841;88;21225;-72
2022/12/09 09:28:10;;;;;;;10.18;8.20;;;;;;;1.67;83.27;100056.16;1580102;88;21133;-72
2022/12/09 09:30:37;;;;;;;13.38;9.43;;;;;;;1.67;83.30;100058.31;1588221;89;21245;-69
2022/12/09 09:33:03;;;;;;;14.45;10.40;;;;;;;1.68;83.34;100046.97;1591306;88;21869;-72
2022/12/09 09:35:30;;;;;;;14.47;10.08;;;;;;;1.70;83.37;100043.83;1585616;88;21068;-74
2022/12/09 09:37:57;;;;;;;13.88;10.20;;;;;;;1.70;83.35;100040.39;1599458;88;21527;-77
2022/12/09 09:40:25;;;;;;;13.35;9.60;;;;;;;1.70;83.37;100030.81;1581744;89;21217;-68
2022/12/09 09:42:52;;;;;;;15.03;10.23;;;;;;;1.72;83.38;100022.92;1587655;88;21131;-68
2022/12/09 09:45:22;;;;;;;15.28;11.18;;;;;;;1.73;83.38;100019.40;1572684;89;21954;-74
2022/12/09 09:48:01;;;;;;;17.45;12.73;;;;;;;1.72;83.35;100015.11;1561016;90;21086;-70
2022/12/09 09:50:40;;;;;;;16.77;11.15;;;;;;;1.71;83.34;100009.06;1578445;88;21069;-68
2022/12/09 09:53:25;;;;;;;14.00;9.45;;;;;;;1.72;83.33;100012.51;1589754;88;21207;-69
2022/12/09 09:56:18;;;;;;;10.98;7.70;;;;;;;1.74;83.31;100012.00;1576186;89;21117;-68
2022/12/09 09:59:10;;;;;;;9.93;7.80;;;;;;;1.76;83.29;100015.83;1576188;89;22575;-68
2022/12/09 10:01:37;;;;;;;11.68;7.00;;;;;;;1.75;83.28;100010.23;1590542;88;21137;-69
2022/12/09 10:04:18;;;;;;;8.70;7.05;;;;;;;1.75;83.26;100002.42;1575433;88;21165;-69
2022/12/09 10:07:03;;;;;;;9.30;7.40;;;;;;;1.75;83.27;99995.92;1570885;88;21538;-69
2022/12/09 10:09:57;;;;;;;13.28;7.80;;;;;;;1.74;83.29;99987.27;1589352;88;21078;-69
2022/12/09 10:12:58;;;;;;;10.15;7.62;;;;;;;1.75;83.29;99979.00;1609047;88;21859;-68
2022/12/09 10:15:40;;;;;;;10.03;8.28;;;;;;;1.73;83.32;99966.87;1609575;87;21148;-72
2022/12/09 10:18:27;;;;;;;11.10;8.58;;;;;;;1.73;83.32;99985.55;1581094;89;21620;-69
2022/12/09 10:20:54;;;;;;;11.12;8.93;;;;;;;1.73;83.33;99979.88;1583045;89;21231;-68
2022/12/09 10:23:21;;;;;;;10.38;8.43;;;;;;;1.72;83.33;99969.09;1590836;88;21161;-68
2022/12/09 10:25:54;;;;;;;9.95;8.58;;;;;;;1.73;83.32;99973.38;1580708;88;22479;-69
2022/12/09 10:28:33;;;;;;;10.98;8.93;;;;;;;1.72;83.31;99984.71;1549957;90;21104;-70
2022/12/09 10:31:01;;;;;;;10.13;8.23;;;;;;;1.73;83.35;99993.36;1573840;89;21135;-70
2022/12/09 10:33:32;;;;;;;9.78;7.83;;;;;;;1.75;83.37;99999.36;1545243;90;21072;-71
2022/12/09 10:35:59;;;;;;;9.88;8.08;;;;;;;1.76;83.32;100002.34;1598119;87;21120;-69
2022/12/09 10:38:27;;;;;;;14.25;10.18;;;;;;;1.76;83.24;100021.03;1569261;89;21559;-69
2022/12/09 10:41:13;;;;;;;12.35;9.73;;;;;;;1.73;83.19;100022.84;1574054;89;21096;-69
2022/12/09 10:43:46;;;;;;;11.68;9.00;;;;;;;1.72;83.19;100011.20;1551524;89;21134;-69
2022/12/09 10:46:20;;;;;;;10.43;8.05;;;;;;;1.73;83.23;100002.02;1582846;89;21592;-69
2022/12/09 10:48:56;;;;;;;10.32;8.00;;;;;;;1.76;83.24;100004.95;1591753;89;21126;-69
2022/12/09 10:51:25;;;;;;;9.40;7.42;;;;;;;1.79;83.28;100005.25;1575664;89;22581;-68
2022/12/09 10:54:06;;;;;;;10.90;7.90;;;;;;;1.79;83.26;100003.95;1585385;88;21683;-67
2022/12/09 10:56:35;;;;;;;8.25;7.22;;;;;;;1.80;83.29;99993.91;1605915;88;21061;-68
2022/12/09 10:59:18;;;;;;;8.78;6.97;;;;;;;1.81;83.29;99989.93;1568144;88;21137;-72
2022/12/09 11:01:58;;;;;;;8.28;6.58;;;;;;;1.82;83.29;99986.86;1579056;89;21538;-70
2022/12/09 11:04:34;;;;;;;9.30;7.22;;;;;;;1.82;83.29;99981.66;1582396;90;22605;-70
2022/12/09 11:07:25;;;;;;;10.93;7.50;;;;;;;1.83;83.31;99979.43;1575282;90;21060;-71
2022/12/09 11:10:03;;;;;;;7.75;6.28;;;;;;;1.80;83.36;99980.89;1572024;89;21644;-70
2022/12/09 11:12:35;;;;;;;8.30;6.65;;;;;;;1.79;83.33;99974.84;1593241;88;21235;-70
2022/12/09 11:15:13;;;;;;;9.65;7.37;;;;;;;1.77;83.30;99977.99;1571401;89;21160;-69
2022/12/09 11:17:44;;;;;;;11.83;8.35;;;;;;;1.77;83.34;99973.25;1576557;89;21791;-71
2022/12/09 11:36:32;;;;;;;5.80;5.20;;;;;;;1.80;83.33;99974.39;1581351;90;21560;-68
2022/12/09 11:39:28;;;;;;;7.05;5.62;;;;;;;1.79;83.30;99967.03;1572611;90;21120;-68
2022/12/09 11:42:21;;;;;;;6.78;5.55;;;;;;;1.81;83.29;99961.75;1574814;89;21146;-68
2022/12/09 11:44:59;;;;;;;7.55;5.53;;;;;;;1.83;83.32;99950.78;1571127;90;21130;-70
2022/12/09 11:47:31;;;;;;;7.60;6.12;;;;;;;1.85;83.27;99959.39;1592982;89;21972;-71
2022/12/09 11:50:22;;;;;;;6.45;5.65;;;;;;;1.84;83.25;99959.85;1574922;89;21761;-69
2022/12/09 11:53:16;;;;;;;7.67;6.28;;;;;;;1.85;83.23;99951.58;1566738;89;21118;-70
2022/12/09 11:55:48;;;;;;;12.73;7.67;;;;;;;1.88;83.26;99943.60;1576958;89;21545;-68
2022/12/09 11:58:23;;;;;;;11.10;7.55;;;;;;;1.87;83.25;99941.45;1559572;89;21141;-68
2022/12/09 12:01:07;;;;;;;16.17;9.90;;;;;;;1.88;83.26;99935.79;1583586;88;21754;-69
2022/12/09 12:03:47;;;;;;;16.20;10.23;;;;;;;1.86;83.23;99937.64;1581845;88;21165;-69
2022/12/09 12:06:27;;;;;;;10.13;7.83;;;;;;;1.84;83.26;99926.46;1594212;88;21072;-71
2022/12/09 12:09:07;;;;;;;9.03;6.78;;;;;;;1.85;83.25;99926.84;1542815;91;21771;-69
2022/12/09 12:11:39;;;;;;;7.67;6.25;;;;;;;1.85;83.22;99923.77;1572309;89;21031;-70
2022/12/09 12:14:16;;;;;;;7.33;6.28;;;;;;;1.86;83.19;99916.80;1593553;89;21978;-70
2022/12/09 12:16:51;;;;;;;7.03;6.33;;;;;;;1.86;83.17;99910.30;1572149;89;21455;-69
2022/12/09 12:19:29;;;;;;;9.03;6.53;;;;;;;1.88;83.18;99909.75;1551755;89;21087;-70
2022/12/09 12:22:24;;;;;;;11.68;7.28;;;;;;;1.88;83.18;99901.47;1575477;89;21195;-70
2022/12/09 12:25:12;;;;;;;17.07;6.95;;;;;;;1.89;83.20;99908.36;1583383;88;21084;-70
2022/12/09 12:28:25;;;;;;;16.55;6.22;;;;;;;1.91;83.16;99903.91;1582518;89;22260;-73
2022/12/09 12:31:33;;;;;;;40.43;6.50;;;;;;;1.92;83.18;99908.66;1591536;88;21122;-71
2022/12/09 12:34:22;;;;;;;12.10;6.22;;;;;;;1.92;83.17;99908.66;1563621;90;21028;-72
2022/12/09 12:37:10;;;;;;;10.30;6.10;;;;;;;1.91;83.13;99909.58;1574907;89;21419;-73
2022/12/09 12:39:57;;;;;;;7.92;5.47;;;;;;;1.90;83.14;99928.73;1564093;89;21169;-72
2022/12/09 12:46:16;;;;;;;10.08;6.50;;;;;;;1.90;83.15;99933.48;1588766;89;21069;-72
2022/12/09 12:49:04;;;;;;;8.30;7.10;;;;;;;1.90;83.15;99930.03;1592648;88;21132;-72
2022/12/09 12:52:14;;;;;;;9.40;7.10;;;;;;;1.89;83.15;99922.69;1591207;88;20980;-73
2022/12/09 12:54:46;;;;;;;11.25;7.10;;;;;;;1.89;83.17;99915.33;1553579;92;21068;-72
2022/12/09 12:57:30;;;;;;;12.15;7.90;;;;;;;1.90;83.18;99917.02;1579026;89;22086;-73
2022/12/09 13:00:11;;;;;;;9.85;7.78;;;;;;;1.88;83.12;99912.35;1576704;88;20993;-73
2022/12/09 13:02:55;;;;;;;23.57;8.50;;;;;;;1.88;83.12;99907.14;1570210;89;21151;-73
2022/12/09 13:05:24;;;;;;;12.50;8.88;;;;;;;1.88;83.15;99898.03;1548130;89;21763;-73
2022/12/09 13:08:06;;;;;;;19.10;8.45;;;;;;;1.88;83.15;99891.52;1550242;89;21045;-74